Du Bois, PA

10:56 AM EDT on March 29, 2017 (GMT -0400)
Du Bois-Jefferson County | | Change Station

Elev 1814 ft 41.18 °N, 78.90 °W | Updated 3 minutes ago

Clear
Clear
46 °F
Feels Like 41 °F
N
9
Wind Variable Wind from North

Today
High -- | Low -- °F
--% Chance of Precip.
Yesterday
High -- | Low -- °F
Precip. -- in
Pressure 30.21 in
Visibility 10.0 miles
Clouds Clear
Windchill 41 °F
Dew Point 29 °F
Humidity 51%
Rainfall 0.00 in
Snow Depth Not available.
7:03 AM 7:37 PM
Waxing Crescent, 3% visible
METAR KDUJ 291453Z AUTO 01008KT 10SM CLR 08/M02 A3019 RMK AO2 SLP228 T00781017 51015
Pressure 30.21 in
Visibility 10.0 miles
Clouds Clear
Windchill 41 °F
Dew Point 29 °F
Humidity 51%
Rainfall 0.00 in
Snow Depth Not available.
7:03 AM 7:37 PM
Waxing Crescent, 3% visible
METAR KDUJ 291453Z AUTO 01008KT 10SM CLR 08/M02 A3019 RMK AO2 SLP228 T00781017 51015

Get Severe Weather Alerts

Thanks for signing up!

Be on the lookout for a verification email in your inbox.

You'll start receiving the daily forecast at 8 AM.

×

10-Day Weather Forecast

Almanac

Astronomy

Mar. 29, 2017 Rise Set
Actual Time
Civil Twilight
Nautical Twilight
Astronomical Twilight
Moon
Length of Visible Light
Length of Day
Tomorrow will be .
, % of the Moon is Illuminated

Today's Extremes

State Highs State Lows

Community

WunderPhotos

Upload Photos

1,962,540 photos uploaded!

WunderBlog® & News

Nearby

Air Quality

  Air Quality AQ Index Pollutant
Not available.

Snow Depth

Station Depth Elevation

Earthquake Activity

City Distance Mag. Time & Date
Minimum magnitude displayed is 2.5.

Earthquake Activity

City Distance Mag. Time & Date
Minimum magnitude displayed is 2.5.

Coastal Water Temperatures

Place Temperature

Stations

Nearby Weather Stations

Station Location Temp. Windchill Dew Point Humidity Wind Precip. Elev Updated Type
                   

Watches & Warnings

There are currently no watches in effect.